createdAt,value
2019-02-06T00:00:56.148Z,19.30
2019-02-06T00:01:56.136Z,18.30
2019-02-06T00:02:56.241Z,18.80
2019-02-06T00:03:56.101Z,19.30
2019-02-06T00:04:56.090Z,18.60
2019-02-06T00:05:56.085Z,18.00
2019-02-06T00:06:56.068Z,18.80
2019-02-06T00:07:56.095Z,18.70
2019-02-06T00:08:56.042Z,17.90
2019-02-06T00:09:56.042Z,17.50
2019-02-06T00:10:56.050Z,18.70
2019-02-06T00:11:56.018Z,17.20
2019-02-06T00:12:56.044Z,18.80
2019-02-06T00:13:56.019Z,18.40
2019-02-06T00:14:55.980Z,18.50
2019-02-06T00:15:55.967Z,18.50
2019-02-06T00:16:55.976Z,17.90
2019-02-06T00:17:55.956Z,17.40
2019-02-06T00:18:55.983Z,17.20
2019-02-06T00:19:55.937Z,18.00
2019-02-06T00:20:55.913Z,17.30
2019-02-06T00:21:55.910Z,17.60
2019-02-06T00:22:55.891Z,18.30
2019-02-06T00:23:55.914Z,18.60
2019-02-06T00:24:55.871Z,17.40
2019-02-06T00:25:55.862Z,17.90
2019-02-06T00:26:55.852Z,17.20
2019-02-06T00:27:55.845Z,17.20
2019-02-06T00:28:55.862Z,16.80
2019-02-06T00:29:55.814Z,18.00
2019-02-06T00:30:55.811Z,17.00
2019-02-06T00:31:55.787Z,17.60
2019-02-06T00:32:55.901Z,18.20
2019-02-06T00:33:56.066Z,17.80
2019-02-06T00:34:55.759Z,17.40
2019-02-06T00:35:55.752Z,17.10
2019-02-06T00:36:55.757Z,17.40
2019-02-06T00:37:55.723Z,17.20
2019-02-06T00:38:55.749Z,17.90
2019-02-06T00:39:55.712Z,17.20
2019-02-06T00:40:55.698Z,17.50
2019-02-06T00:41:55.679Z,17.20
2019-02-06T00:42:55.672Z,16.70
2019-02-06T00:43:55.659Z,16.70
2019-02-06T00:44:55.663Z,17.00
2019-02-06T00:45:55.637Z,17.30
2019-02-06T00:46:55.623Z,16.90
2019-02-06T00:47:55.615Z,16.50
2019-02-06T00:48:55.602Z,16.60
2019-02-06T00:49:55.608Z,16.80
2019-02-06T00:50:55.578Z,16.60
2019-02-06T00:51:55.565Z,17.20
2019-02-06T00:52:55.559Z,17.10
2019-02-06T00:53:55.564Z,16.70
2019-02-06T00:54:55.565Z,16.60
2019-02-06T00:55:55.534Z,16.60
2019-02-06T00:56:55.513Z,16.70
2019-02-06T00:57:55.501Z,17.40
2019-02-06T00:58:55.490Z,16.30
2019-02-06T00:59:58.453Z,17.00
2019-02-06T01:00:55.468Z,17.10
2019-02-06T01:01:55.454Z,16.80
2019-02-06T01:02:55.442Z,16.40
2019-02-06T01:03:55.434Z,16.60
2019-02-06T01:04:55.442Z,16.50
2019-02-06T01:05:55.413Z,16.80
2019-02-06T01:06:55.408Z,15.80
2019-02-06T01:07:55.388Z,15.20
2019-02-06T01:08:55.381Z,15.70
2019-02-06T01:09:55.381Z,16.50
2019-02-06T01:10:55.358Z,16.10
2019-02-06T01:11:55.351Z,15.90
2019-02-06T01:12:55.359Z,16.30
2019-02-06T01:13:55.323Z,15.60
2019-02-06T01:14:55.357Z,16.20
2019-02-06T01:15:55.304Z,15.10
2019-02-06T01:16:55.321Z,15.30
2019-02-06T01:17:55.291Z,15.60
2019-02-06T01:18:55.264Z,15.80
2019-02-06T01:19:55.270Z,15.80
2019-02-06T01:20:55.242Z,15.70
2019-02-06T01:21:55.244Z,15.40
2019-02-06T01:22:55.220Z,15.50
2019-02-06T01:23:55.210Z,16.20
2019-02-06T01:24:55.226Z,16.10
2019-02-06T01:25:55.189Z,16.20
2019-02-06T01:26:55.186Z,15.30
2019-02-06T01:27:55.175Z,15.20
2019-02-06T01:28:55.163Z,15.60
2019-02-06T01:29:55.167Z,15.80
2019-02-06T01:30:55.134Z,15.70
2019-02-06T01:31:55.118Z,15.60
2019-02-06T01:32:55.120Z,15.00
2019-02-06T01:33:55.102Z,15.60
2019-02-06T01:34:55.108Z,15.70
2019-02-06T01:35:55.090Z,15.90
2019-02-06T01:36:55.071Z,15.70
2019-02-06T01:37:55.052Z,16.40
2019-02-06T01:38:55.046Z,15.20
2019-02-06T01:39:55.054Z,16.00
2019-02-06T01:40:55.079Z,15.30
2019-02-06T01:41:55.011Z,15.30
2019-02-06T01:42:55.006Z,15.80
2019-02-06T01:43:54.989Z,15.30
2019-02-06T01:44:55.026Z,14.90
2019-02-06T01:45:54.985Z,15.60
2019-02-06T01:46:55.014Z,15.70
2019-02-06T01:47:54.943Z,15.50
2019-02-06T01:48:54.932Z,16.00
2019-02-06T01:49:54.923Z,15.00
2019-02-06T01:50:54.930Z,14.80
2019-02-06T01:51:54.903Z,16.10
2019-02-06T01:52:54.882Z,15.80
2019-02-06T01:53:54.873Z,16.40
2019-02-06T01:54:54.876Z,15.70
2019-02-06T01:55:54.879Z,14.70
2019-02-06T01:56:54.845Z,15.50
2019-02-06T01:57:54.842Z,15.90
2019-02-06T01:58:54.819Z,14.90
2019-02-06T01:59:54.809Z,15.10
2019-02-06T02:00:54.824Z,15.40
2019-02-06T02:01:54.786Z,15.80
2019-02-06T02:02:54.777Z,14.60
2019-02-06T02:03:54.778Z,15.80
2019-02-06T02:04:54.749Z,15.30
2019-02-06T02:06:02.484Z,15.40
2019-02-06T02:06:55.732Z,15.50
2019-02-06T02:07:54.722Z,15.80
2019-02-06T02:08:54.717Z,15.40
2019-02-06T02:09:54.696Z,15.30
2019-02-06T02:10:54.715Z,14.90
2019-02-06T02:11:54.675Z,15.80
2019-02-06T02:12:54.662Z,15.80
2019-02-06T02:13:54.660Z,15.60
2019-02-06T02:14:54.647Z,15.60
2019-02-06T02:15:54.729Z,16.50
2019-02-06T02:16:54.667Z,15.40
2019-02-06T02:17:54.627Z,15.80
2019-02-06T02:18:54.602Z,15.00
2019-02-06T02:19:54.594Z,15.80
2019-02-06T02:20:54.583Z,16.10
2019-02-06T02:21:54.609Z,15.60
2019-02-06T02:22:54.555Z,15.10
2019-02-06T02:23:54.554Z,16.50
2019-02-06T02:24:54.530Z,15.90
2019-02-06T02:25:54.557Z,15.50
2019-02-06T02:26:54.533Z,15.90
2019-02-06T02:27:54.517Z,16.00
2019-02-06T02:28:54.489Z,16.00
2019-02-06T02:29:54.483Z,15.70
2019-02-06T02:30:54.466Z,16.20
2019-02-06T02:31:54.474Z,16.70
2019-02-06T02:32:54.446Z,16.40
2019-02-06T02:33:54.433Z,16.90
2019-02-06T02:34:54.421Z,16.40
2019-02-06T02:35:54.424Z,16.60
2019-02-06T02:36:54.397Z,16.30
2019-02-06T02:37:54.402Z,16.60
2019-02-06T02:38:54.377Z,16.50
2019-02-06T02:39:54.373Z,16.70
2019-02-06T02:40:54.356Z,16.00
2019-02-06T02:41:54.350Z,16.10
2019-02-06T02:42:54.348Z,15.60
2019-02-06T02:43:54.322Z,16.40
2019-02-06T02:44:54.308Z,17.10
2019-02-06T02:45:54.298Z,16.80
2019-02-06T02:46:54.307Z,16.00
2019-02-06T02:47:54.293Z,16.10
2019-02-06T02:48:54.283Z,16.00
2019-02-06T02:49:54.264Z,16.50
2019-02-06T02:50:54.246Z,16.90
2019-02-06T02:51:54.235Z,16.00
2019-02-06T02:52:54.246Z,15.80
2019-02-06T02:53:54.219Z,16.50
2019-02-06T02:54:54.200Z,16.30
2019-02-06T02:55:54.190Z,15.90
2019-02-06T02:56:54.181Z,16.80
2019-02-06T02:57:54.178Z,16.20
2019-02-06T02:58:54.151Z,16.30
2019-02-06T02:59:54.148Z,16.80
2019-02-06T03:00:54.132Z,16.20
2019-02-06T03:01:54.120Z,16.10
2019-02-06T03:02:54.132Z,15.90
2019-02-06T03:03:54.096Z,16.30
2019-02-06T03:04:54.089Z,16.20
2019-02-06T03:05:54.085Z,16.70
2019-02-06T03:06:54.061Z,16.60
2019-02-06T03:07:54.082Z,16.90
2019-02-06T03:08:54.043Z,15.90
2019-02-06T03:09:54.028Z,16.80
2019-02-06T03:10:54.020Z,16.10
2019-02-06T03:11:54.005Z,16.90
2019-02-06T03:12:54.249Z,16.70
2019-02-06T03:13:53.986Z,17.00
2019-02-06T03:14:54.040Z,16.30
2019-02-06T03:15:53.979Z,16.10
2019-02-06T03:16:53.961Z,17.50
2019-02-06T03:17:53.969Z,16.10
2019-02-06T03:18:53.932Z,17.60
2019-02-06T03:19:53.932Z,16.80
2019-02-06T03:20:53.908Z,16.80
2019-02-06T03:21:53.904Z,15.90
2019-02-06T03:22:53.911Z,16.50
2019-02-06T03:23:53.872Z,17.10
2019-02-06T03:24:53.862Z,16.40
2019-02-06T03:25:53.851Z,17.10
2019-02-06T03:26:53.837Z,17.00
2019-02-06T03:27:53.844Z,17.20
2019-02-06T03:28:53.820Z,17.50
2019-02-06T03:29:53.809Z,18.20
2019-02-06T03:30:53.822Z,18.20
2019-02-06T03:31:53.788Z,17.50
2019-02-06T03:32:53.795Z,17.80
2019-02-06T03:33:53.794Z,18.10
2019-02-06T03:34:53.752Z,17.90
2019-02-06T03:35:53.740Z,18.30
2019-02-06T03:36:53.730Z,18.20
2019-02-06T03:37:53.744Z,18.10
2019-02-06T03:38:53.717Z,18.00
2019-02-06T03:39:53.698Z,19.10
2019-02-06T03:40:53.684Z,17.80
2019-02-06T03:41:53.677Z,18.20
2019-02-06T03:42:53.689Z,18.50
2019-02-06T03:43:53.647Z,17.70
2019-02-06T03:44:53.649Z,19.10
2019-02-06T03:45:53.626Z,18.10
2019-02-06T03:46:53.622Z,18.70
2019-02-06T03:47:53.625Z,17.90
2019-02-06T03:48:53.620Z,19.20
2019-02-06T03:49:53.590Z,18.70
2019-02-06T03:50:53.585Z,19.20
2019-02-06T03:51:53.564Z,19.30
2019-02-06T03:52:53.695Z,18.20
2019-02-06T03:53:53.568Z,19.40
2019-02-06T03:54:53.533Z,19.00
2019-02-06T03:55:53.538Z,19.60
2019-02-06T03:56:53.505Z,20.40
2019-02-06T03:57:53.502Z,19.90
2019-02-06T03:58:53.500Z,20.00
2019-02-06T03:59:53.478Z,19.40
2019-02-06T04:00:53.463Z,20.20
2019-02-06T04:01:53.458Z,20.50
2019-02-06T04:02:53.436Z,19.50
2019-02-06T04:03:53.446Z,20.50
2019-02-06T04:04:53.416Z,21.10
2019-02-06T04:05:53.411Z,20.90
2019-02-06T04:07:00.743Z,20.10
2019-02-06T04:07:54.386Z,21.10
2019-02-06T04:08:53.385Z,21.50
2019-02-06T04:09:53.361Z,21.70
2019-02-06T04:10:53.350Z,22.60
2019-02-06T04:11:54.088Z,21.60
2019-02-06T04:12:53.342Z,22.90
2019-02-06T04:13:53.350Z,21.70
2019-02-06T04:14:53.306Z,22.70
2019-02-06T04:15:53.307Z,22.90
2019-02-06T04:16:53.303Z,22.70
2019-02-06T04:17:54.499Z,23.10
2019-02-06T04:18:53.305Z,23.60
2019-02-06T04:19:53.254Z,22.50
2019-02-06T04:20:53.237Z,23.10
2019-02-06T04:21:53.233Z,23.50
2019-02-06T04:22:53.218Z,24.20
2019-02-06T04:23:53.205Z,23.40
2019-02-06T04:24:53.246Z,23.80
2019-02-06T04:25:53.185Z,23.80
2019-02-06T04:26:53.169Z,24.40
2019-02-06T04:27:53.160Z,24.40
2019-02-06T04:28:53.180Z,24.40
2019-02-06T04:29:53.150Z,24.20
2019-02-06T04:30:53.151Z,24.20
2019-02-06T04:31:53.118Z,24.30
2019-02-06T04:32:53.151Z,25.40
2019-02-06T04:33:53.111Z,24.00
2019-02-06T04:34:53.108Z,25.20
2019-02-06T04:35:53.078Z,25.30
2019-02-06T04:37:05.849Z,24.50
2019-02-06T04:37:54.049Z,24.60
2019-02-06T04:38:53.053Z,23.60
2019-02-06T04:39:53.028Z,24.30
2019-02-06T04:40:53.028Z,24.30
2019-02-06T04:41:53.014Z,24.20
2019-02-06T04:42:53.074Z,24.20
2019-02-06T04:43:53.003Z,24.50
2019-02-06T04:44:52.969Z,24.50
2019-02-06T04:45:52.990Z,24.30
2019-02-06T04:46:52.963Z,25.20
2019-02-06T04:47:52.942Z,24.40
2019-02-06T04:48:52.934Z,24.10
2019-02-06T04:49:52.918Z,24.10
2019-02-06T04:50:52.916Z,24.30
2019-02-06T04:51:52.898Z,25.20
2019-02-06T04:52:52.896Z,24.80
2019-02-06T04:53:52.868Z,26.10
2019-02-06T04:54:52.861Z,26.70
2019-02-06T04:55:52.868Z,25.70
2019-02-06T04:56:52.848Z,27.30
2019-02-06T04:57:52.835Z,27.00
2019-02-06T04:58:52.817Z,27.00
2019-02-06T04:59:52.833Z,27.40
2019-02-06T05:00:52.794Z,27.10
2019-02-06T05:01:52.804Z,28.40
2019-02-06T05:02:52.777Z,28.70
2019-02-06T05:03:52.767Z,27.80
2019-02-06T05:04:52.751Z,29.30
2019-02-06T05:05:52.737Z,28.30
2019-02-06T05:06:52.746Z,30.00
2019-02-06T05:07:52.752Z,28.80
2019-02-06T05:08:52.707Z,29.60
2019-02-06T05:09:52.704Z,30.10
2019-02-06T05:10:52.684Z,30.10
2019-02-06T05:11:52.691Z,30.60
2019-02-06T05:12:52.657Z,30.30
2019-02-06T05:13:52.649Z,29.40
2019-02-06T05:14:52.666Z,29.20
2019-02-06T05:15:52.624Z,31.00
2019-02-06T05:16:52.616Z,30.00
2019-02-06T05:17:55.788Z,31.20
2019-02-06T05:18:52.668Z,31.70
2019-02-06T05:19:52.587Z,32.00
2019-02-06T05:20:52.570Z,31.30
2019-02-06T05:21:52.562Z,32.20
2019-02-06T05:22:52.570Z,31.60
2019-02-06T05:23:52.532Z,32.10
2019-02-06T05:24:52.532Z,31.80
2019-02-06T05:25:52.528Z,31.70
2019-02-06T05:26:52.512Z,32.70
2019-02-06T05:27:52.511Z,32.80
2019-02-06T05:28:52.543Z,31.40
2019-02-06T05:29:52.468Z,32.00
2019-02-06T05:30:52.461Z,32.10
2019-02-06T05:31:52.453Z,32.90
2019-02-06T05:32:52.468Z,31.70
2019-02-06T05:33:52.426Z,32.20
2019-02-06T05:34:52.416Z,32.80
2019-02-06T05:35:52.425Z,33.30
2019-02-06T05:36:52.401Z,32.40
2019-02-06T05:37:52.394Z,33.50
2019-02-06T05:38:52.399Z,32.90
2019-02-06T05:39:52.366Z,32.70
2019-02-06T05:40:52.348Z,33.90
2019-02-06T05:41:52.348Z,33.30
2019-02-06T05:42:52.871Z,33.50
2019-02-06T05:43:52.338Z,33.30
2019-02-06T05:44:52.302Z,33.50
2019-02-06T05:45:52.296Z,33.70
2019-02-06T05:46:52.288Z,34.20
2019-02-06T05:47:52.272Z,33.20
2019-02-06T05:48:52.280Z,32.60
2019-02-06T05:49:52.262Z,34.30
2019-02-06T05:50:52.244Z,33.00
2019-02-06T05:51:52.227Z,34.30
2019-02-06T05:52:52.221Z,34.10
2019-02-06T05:53:52.239Z,34.20
2019-02-06T05:54:52.194Z,35.00
2019-02-06T05:55:52.203Z,35.10
2019-02-06T05:56:52.170Z,33.30
2019-02-06T05:57:52.162Z,35.40
2019-02-06T05:58:52.152Z,34.70
2019-02-06T05:59:52.166Z,35.70
2019-02-06T06:00:52.133Z,35.30
2019-02-06T06:01:52.130Z,35.60
2019-02-06T06:02:52.114Z,36.00
2019-02-06T06:03:52.098Z,35.80
2019-02-06T06:04:52.108Z,35.80
2019-02-06T06:05:52.078Z,36.70
2019-02-06T06:06:52.073Z,36.30
2019-02-06T06:07:52.050Z,36.00
2019-02-06T06:08:52.037Z,34.70
2019-02-06T06:09:52.054Z,36.10
2019-02-06T06:10:52.025Z,35.50
2019-02-06T06:11:52.012Z,36.40
2019-02-06T06:12:52.001Z,36.10
2019-02-06T06:13:51.982Z,36.50
2019-02-06T06:14:52.120Z,35.30
2019-02-06T06:15:51.964Z,36.50
2019-02-06T06:16:51.973Z,35.30
2019-02-06T06:17:51.994Z,37.40
2019-02-06T06:18:51.938Z,37.20
2019-02-06T06:19:51.924Z,37.30
2019-02-06T06:20:51.904Z,37.40
2019-02-06T06:21:51.926Z,37.90
2019-02-06T06:22:51.895Z,37.50
2019-02-06T06:23:51.884Z,37.50
2019-02-06T06:24:51.874Z,36.20
2019-02-06T06:25:51.878Z,36.80
2019-02-06T06:26:51.852Z,37.60
2019-02-06T06:27:51.833Z,37.80
2019-02-06T06:28:51.818Z,37.40
2019-02-06T06:29:51.814Z,37.40
2019-02-06T06:30:51.822Z,36.90
2019-02-06T06:31:51.785Z,37.00
2019-02-06T06:32:51.780Z,37.70
2019-02-06T06:33:51.774Z,39.00
2019-02-06T06:34:51.754Z,37.50
2019-02-06T06:35:51.764Z,37.60
2019-02-06T06:36:51.748Z,38.80
2019-02-06T06:37:59.913Z,37.70
2019-02-06T06:38:52.706Z,37.90
2019-02-06T06:39:51.713Z,38.10
2019-02-06T06:40:51.685Z,38.80
2019-02-06T06:41:51.693Z,38.90
2019-02-06T06:42:51.668Z,38.70
2019-02-06T06:43:51.651Z,39.80
2019-02-06T06:44:51.641Z,39.10
2019-02-06T06:45:51.646Z,39.40
2019-02-06T06:46:51.648Z,39.40
2019-02-06T06:47:51.608Z,39.90
2019-02-06T06:48:51.608Z,38.70
2019-02-06T06:49:51.595Z,38.10
2019-02-06T06:50:51.578Z,38.80
2019-02-06T06:51:51.580Z,39.80
2019-02-06T06:52:51.553Z,39.30
2019-02-06T06:53:51.541Z,39.30
2019-02-06T06:54:51.525Z,40.20
2019-02-06T06:55:51.522Z,39.90
2019-02-06T06:56:51.531Z,39.60
2019-02-06T06:57:51.526Z,38.60
2019-02-06T06:58:51.486Z,40.30
2019-02-06T06:59:51.473Z,40.30
2019-02-06T07:00:51.465Z,40.60
2019-02-06T07:01:51.469Z,40.40
2019-02-06T07:02:51.457Z,40.40
2019-02-06T07:03:51.438Z,40.60
2019-02-06T07:04:51.413Z,41.20
2019-02-06T07:05:51.415Z,41.20
2019-02-06T07:06:51.449Z,40.50
2019-02-06T07:07:51.385Z,41.20
2019-02-06T07:08:51.374Z,41.60
2019-02-06T07:09:51.363Z,41.40
2019-02-06T07:10:51.350Z,41.50
2019-02-06T07:11:51.343Z,40.10
2019-02-06T07:12:51.344Z,40.70
2019-02-06T07:13:51.714Z,39.60
2019-02-06T07:14:51.314Z,40.10
2019-02-06T07:15:51.301Z,41.20
2019-02-06T07:16:51.286Z,40.60
2019-02-06T07:17:51.293Z,39.60
2019-02-06T07:18:51.377Z,40.40
2019-02-06T07:19:51.249Z,40.40
2019-02-06T07:20:51.243Z,39.50
2019-02-06T07:21:51.249Z,39.40
2019-02-06T07:22:51.241Z,39.20
2019-02-06T07:23:51.205Z,39.80
2019-02-06T07:24:51.200Z,38.50
2019-02-06T07:25:51.181Z,39.40
2019-02-06T07:26:51.179Z,40.00
2019-02-06T07:27:51.198Z,38.50
2019-02-06T07:28:51.150Z,39.60
2019-02-06T07:29:51.139Z,38.10
2019-02-06T07:30:51.127Z,39.60
2019-02-06T07:31:51.117Z,38.90
2019-02-06T07:32:51.141Z,38.70
2019-02-06T07:33:51.091Z,39.00
2019-02-06T07:34:51.078Z,38.40
2019-02-06T07:35:51.082Z,38.00
2019-02-06T07:36:51.066Z,39.00
2019-02-06T07:37:51.064Z,38.40
2019-02-06T07:38:51.064Z,38.40
2019-02-06T07:39:51.022Z,37.70
2019-02-06T07:40:51.015Z,37.30
2019-02-06T07:41:51.017Z,36.60
2019-02-06T07:42:50.995Z,37.30
2019-02-06T07:43:51.060Z,38.90
2019-02-06T07:44:50.968Z,38.40
2019-02-06T07:45:50.964Z,38.20
2019-02-06T07:46:50.946Z,38.20
2019-02-06T07:47:50.937Z,39.20
2019-02-06T07:48:50.941Z,37.80
2019-02-06T07:49:50.914Z,38.90
2019-02-06T07:50:50.903Z,38.50
2019-02-06T07:51:50.892Z,38.20
2019-02-06T07:52:50.888Z,38.40
2019-02-06T07:53:50.893Z,39.30
2019-02-06T07:54:50.860Z,38.30
2019-02-06T07:55:50.859Z,38.10
2019-02-06T07:56:50.841Z,39.50
2019-02-06T07:57:50.827Z,37.90
2019-02-06T07:58:50.964Z,40.30
2019-02-06T07:59:50.806Z,39.00
2019-02-06T08:00:50.802Z,38.70
2019-02-06T08:01:50.790Z,39.50
2019-02-06T08:02:50.782Z,37.40
2019-02-06T08:03:50.780Z,38.30
2019-02-06T08:04:50.754Z,38.40
2019-02-06T08:05:50.735Z,37.70
2019-02-06T08:06:50.733Z,36.70
2019-02-06T08:07:50.715Z,38.40
2019-02-06T08:08:50.738Z,39.10
2019-02-06T08:09:50.704Z,37.10
2019-02-06T08:10:50.694Z,37.40
2019-02-06T08:11:50.672Z,38.30
2019-02-06T08:12:50.716Z,38.00
2019-02-06T08:13:50.672Z,38.20
2019-02-06T08:14:50.647Z,36.40
2019-02-06T08:15:50.626Z,37.20
2019-02-06T08:16:50.634Z,37.90
2019-02-06T08:17:50.615Z,37.10
2019-02-06T08:18:50.626Z,37.50
2019-02-06T08:19:50.584Z,36.70
2019-02-06T08:20:50.574Z,36.80
2019-02-06T08:21:50.562Z,36.10
2019-02-06T08:22:50.552Z,36.20
2019-02-06T08:23:50.655Z,37.00
2019-02-06T08:24:50.550Z,37.50
2019-02-06T08:25:50.516Z,36.60
2019-02-06T08:26:50.512Z,36.90
2019-02-06T08:27:50.494Z,36.70
2019-02-06T08:28:50.590Z,37.60
2019-02-06T08:29:50.488Z,36.70
2019-02-06T08:30:50.457Z,36.20
2019-02-06T08:31:50.454Z,36.90
2019-02-06T08:32:50.438Z,36.50
2019-02-06T08:33:50.428Z,37.10
2019-02-06T08:34:50.450Z,36.80
2019-02-06T08:35:50.428Z,36.10
2019-02-06T08:36:50.394Z,35.70
2019-02-06T08:37:50.392Z,38.60
2019-02-06T08:38:50.380Z,37.20
2019-02-06T08:39:50.372Z,39.00
2019-02-06T08:40:50.352Z,36.50
2019-02-06T08:41:50.341Z,37.70
2019-02-06T08:42:50.433Z,37.30
2019-02-06T08:43:50.319Z,36.90
2019-02-06T08:44:50.325Z,37.10
2019-02-06T08:45:50.294Z,38.50
2019-02-06T08:46:50.283Z,38.10
2019-02-06T08:47:50.280Z,37.10
2019-02-06T08:48:50.268Z,36.90
2019-02-06T08:49:50.273Z,36.90
2019-02-06T08:50:50.237Z,36.80
2019-02-06T08:51:50.234Z,36.80
2019-02-06T08:52:50.226Z,37.50
2019-02-06T08:53:50.210Z,37.20
2019-02-06T08:54:50.237Z,37.60
2019-02-06T08:55:50.183Z,36.00
2019-02-06T08:56:50.171Z,38.50
2019-02-06T08:57:50.158Z,37.70
2019-02-06T08:58:50.155Z,37.90
2019-02-06T08:59:50.168Z,37.00
2019-02-06T09:00:50.125Z,36.90
2019-02-06T09:01:50.115Z,36.60
2019-02-06T09:02:50.103Z,37.30
2019-02-06T09:03:50.099Z,36.70
2019-02-06T09:04:55.796Z,37.20
2019-02-06T09:05:51.098Z,36.40
2019-02-06T09:06:50.067Z,36.50
2019-02-06T09:07:50.054Z,37.00
2019-02-06T09:08:59.392Z,36.00
2019-02-06T09:09:51.030Z,35.60
2019-02-06T09:10:50.036Z,36.20
2019-02-06T09:11:50.002Z,36.00
2019-02-06T09:12:49.992Z,34.00
2019-02-06T09:13:49.976Z,35.70
2019-02-06T09:14:49.970Z,35.50
2019-02-06T09:15:49.978Z,34.80
2019-02-06T09:16:49.952Z,35.00
2019-02-06T09:17:49.938Z,34.80
2019-02-06T09:18:49.927Z,32.80
2019-02-06T09:19:49.912Z,33.70
2019-02-06T09:20:52.720Z,33.10
2019-02-06T09:21:49.904Z,34.40
2019-02-06T09:22:49.887Z,32.70
2019-02-06T09:23:49.869Z,32.50
2019-02-06T09:24:49.858Z,33.60
2019-02-06T09:25:49.869Z,32.90
2019-02-06T09:26:49.836Z,32.50
2019-02-06T09:27:49.846Z,32.90
2019-02-06T09:28:49.821Z,31.90
2019-02-06T09:29:49.801Z,31.90
2019-02-06T09:30:49.820Z,31.70
2019-02-06T09:31:49.795Z,32.00
2019-02-06T09:32:49.768Z,30.80
2019-02-06T09:33:49.766Z,30.70
2019-02-06T09:34:49.747Z,32.10
2019-02-06T09:35:49.763Z,32.60
2019-02-06T09:36:49.726Z,32.50
2019-02-06T09:37:49.716Z,31.70
2019-02-06T09:38:49.732Z,32.70
2019-02-06T09:39:49.704Z,30.50
2019-02-06T09:40:49.853Z,31.80
2019-02-06T09:41:49.692Z,31.30
2019-02-06T09:42:49.670Z,30.60
2019-02-06T09:43:49.647Z,31.30
2019-02-06T09:44:49.637Z,30.70
2019-02-06T09:45:49.635Z,30.30
2019-02-06T09:46:49.647Z,30.20
2019-02-06T09:47:49.608Z,30.70
2019-02-06T09:48:49.594Z,31.60
2019-02-06T09:49:50.033Z,29.60
2019-02-06T09:50:49.573Z,29.40
2019-02-06T09:51:49.580Z,30.60
2019-02-06T09:52:49.549Z,30.90
2019-02-06T09:53:49.533Z,30.30
2019-02-06T09:54:49.532Z,29.50
2019-02-06T09:55:49.517Z,30.00
2019-02-06T09:56:50.709Z,28.60
2019-02-06T09:57:49.487Z,29.30
2019-02-06T09:58:49.480Z,28.70
2019-02-06T09:59:49.467Z,29.00
2019-02-06T10:00:49.455Z,29.20
2019-02-06T10:01:49.465Z,28.10
2019-02-06T10:02:49.448Z,27.70
2019-02-06T10:03:49.423Z,27.90
2019-02-06T10:04:49.415Z,26.90
2019-02-06T10:05:49.414Z,26.60
2019-02-06T10:06:49.412Z,26.70
2019-02-06T10:07:49.386Z,25.60
2019-02-06T10:08:49.369Z,25.90
2019-02-06T10:09:49.355Z,26.70
2019-02-06T10:10:49.343Z,26.80
2019-02-06T10:11:49.366Z,25.40
2019-02-06T10:12:49.321Z,26.70
2019-02-06T10:13:49.315Z,24.90
2019-02-06T10:14:49.300Z,25.20
2019-02-06T10:15:49.296Z,24.90
2019-02-06T10:16:49.300Z,25.30
2019-02-06T10:17:49.264Z,23.90
2019-02-06T10:18:49.267Z,24.40
2019-02-06T10:19:49.248Z,24.20
2019-02-06T10:20:49.233Z,24.50
2019-02-06T10:21:52.859Z,21.90
2019-02-06T10:22:49.213Z,24.30
2019-02-06T10:23:49.204Z,23.40
2019-02-06T10:24:49.213Z,23.50
2019-02-06T10:25:49.176Z,23.30
2019-02-06T10:26:49.180Z,21.70
2019-02-06T10:27:49.155Z,22.30
2019-02-06T10:28:49.145Z,23.00
2019-02-06T10:29:49.134Z,20.70
2019-02-06T10:30:49.137Z,22.10
2019-02-06T10:31:49.134Z,21.20
2019-02-06T10:32:49.093Z,21.40
2019-02-06T10:33:49.087Z,22.50
2019-02-06T10:34:49.188Z,22.10
2019-02-06T10:35:51.976Z,21.70
2019-02-06T10:36:49.082Z,20.20
2019-02-06T10:37:49.043Z,20.70
2019-02-06T10:38:49.027Z,21.70
2019-02-06T10:39:49.021Z,20.50
2019-02-06T10:40:49.006Z,21.10
2019-02-06T10:41:49.023Z,20.70
2019-02-06T10:42:48.993Z,19.80
2019-02-06T10:43:48.981Z,21.10
2019-02-06T10:44:48.957Z,20.40
2019-02-06T10:45:48.945Z,20.10
2019-02-06T10:46:49.004Z,20.00
2019-02-06T10:47:48.948Z,19.50
2019-02-06T10:48:48.946Z,20.20
2019-02-06T10:49:48.908Z,20.10
2019-02-06T10:50:48.893Z,19.90
2019-02-06T10:51:49.046Z,19.40
2019-02-06T10:52:48.887Z,19.30
2019-02-06T10:53:48.871Z,19.90
2019-02-06T10:54:48.848Z,19.50
2019-02-06T10:55:48.839Z,18.90
2019-02-06T10:56:48.826Z,18.40
2019-02-06T10:57:48.842Z,18.70
2019-02-06T10:58:48.805Z,18.50
2019-02-06T10:59:48.796Z,18.00
2019-02-06T11:00:48.781Z,18.30
2019-02-06T11:01:48.770Z,16.30
2019-02-06T11:02:48.781Z,17.10
2019-02-06T11:03:48.753Z,18.10
2019-02-06T11:04:48.743Z,16.90
2019-02-06T11:05:48.720Z,16.70
2019-02-06T11:06:48.720Z,16.40
2019-02-06T11:07:48.767Z,17.80
2019-02-06T11:08:48.691Z,16.60
2019-02-06T11:09:48.682Z,17.60
2019-02-06T11:10:48.664Z,17.00
2019-02-06T11:11:48.660Z,16.80
2019-02-06T11:12:48.666Z,16.30
2019-02-06T11:13:49.858Z,16.80
2019-02-06T11:14:48.635Z,15.90
2019-02-06T11:15:48.613Z,16.00
2019-02-06T11:16:48.599Z,17.00
2019-02-06T11:17:48.609Z,16.30
2019-02-06T11:18:48.580Z,16.40
2019-02-06T11:19:48.577Z,16.40
2019-02-06T11:20:48.555Z,16.40
2019-02-06T11:21:48.547Z,15.50
2019-02-06T11:22:48.570Z,15.60
2019-02-06T11:23:48.520Z,15.00
2019-02-06T11:24:48.507Z,15.00
2019-02-06T11:25:48.504Z,14.20
2019-02-06T11:26:48.489Z,14.40
2019-02-06T11:27:48.495Z,14.20
2019-02-06T11:28:48.461Z,14.70
2019-02-06T11:29:48.688Z,14.70
2019-02-06T11:30:48.450Z,12.90
2019-02-06T11:31:48.455Z,13.50
2019-02-06T11:32:48.459Z,13.90
2019-02-06T11:33:48.424Z,14.10
2019-02-06T11:34:48.410Z,13.20
2019-02-06T11:35:48.387Z,14.00
2019-02-06T11:36:48.378Z,14.10
2019-02-06T11:37:48.385Z,13.40
2019-02-06T11:38:48.362Z,12.80
2019-02-06T11:39:57.629Z,12.90
2019-02-06T11:40:49.338Z,13.20
2019-02-06T11:41:48.324Z,14.30
2019-02-06T11:42:48.339Z,13.50
2019-02-06T11:43:48.290Z,13.60
2019-02-06T11:44:48.284Z,13.00
2019-02-06T11:45:48.273Z,13.20
2019-02-06T11:46:48.255Z,13.10
2019-02-06T11:47:48.258Z,12.70
2019-02-06T11:48:48.270Z,13.00
2019-02-06T11:49:48.232Z,13.20
2019-02-06T11:50:48.225Z,12.90
2019-02-06T11:51:48.204Z,13.60
2019-02-06T11:52:48.192Z,13.00
2019-02-06T11:53:48.199Z,12.40
2019-02-06T11:54:48.189Z,12.30
2019-02-06T11:55:48.249Z,12.90
2019-02-06T11:56:48.151Z,12.90
2019-02-06T11:57:48.622Z,13.70
2019-02-06T11:58:48.139Z,13.20
2019-02-06T11:59:48.122Z,13.40
2019-02-06T12:00:48.777Z,12.10
2019-02-06T12:01:48.083Z,12.40
2019-02-06T12:02:48.077Z,10.60
2019-02-06T12:03:48.095Z,11.20
2019-02-06T12:04:48.070Z,11.00
2019-02-06T12:05:48.066Z,11.20
2019-02-06T12:06:48.043Z,10.80
2019-02-06T12:07:48.038Z,11.30
2019-02-06T12:08:48.051Z,11.40
2019-02-06T12:09:48.013Z,11.30
2019-02-06T12:10:48.003Z,11.00
2019-02-06T12:11:47.972Z,11.10
2019-02-06T12:12:47.964Z,10.80
2019-02-06T12:13:47.967Z,11.40
2019-02-06T12:14:47.975Z,11.20
2019-02-06T12:15:47.937Z,12.60
2019-02-06T12:16:47.923Z,12.60
2019-02-06T12:17:47.909Z,13.30
2019-02-06T12:18:47.913Z,13.50
2019-02-06T12:19:47.883Z,14.20
2019-02-06T12:20:47.881Z,13.50
2019-02-06T12:21:47.865Z,14.20
2019-02-06T12:22:47.847Z,15.00
2019-02-06T12:23:48.027Z,13.90
2019-02-06T12:24:47.827Z,13.80
2019-02-06T12:25:47.867Z,14.00
2019-02-06T12:26:47.817Z,14.10
2019-02-06T12:27:47.799Z,12.90
2019-02-06T12:28:47.812Z,13.90
2019-02-06T12:29:47.771Z,13.20
2019-02-06T12:30:47.755Z,12.90
2019-02-06T12:31:47.751Z,12.60
2019-02-06T12:32:52.179Z,12.50
2019-02-06T12:33:47.749Z,12.20
2019-02-06T12:34:47.709Z,11.50
2019-02-06T12:35:47.697Z,12.10
2019-02-06T12:36:47.695Z,11.70
2019-02-06T12:37:47.681Z,12.00
2019-02-06T12:38:53.615Z,11.20
2019-02-06T12:39:48.649Z,12.00
2019-02-06T12:40:47.673Z,11.20
2019-02-06T12:41:47.635Z,11.60
2019-02-06T12:42:47.625Z,12.30
2019-02-06T12:43:47.627Z,11.70
2019-02-06T12:44:47.625Z,11.50
2019-02-06T12:45:47.613Z,12.50
2019-02-06T12:46:47.577Z,12.10
2019-02-06T12:47:47.565Z,11.40
2019-02-06T12:48:47.557Z,11.40
2019-02-06T12:49:47.569Z,11.60
2019-02-06T12:50:47.596Z,11.70
2019-02-06T12:51:47.521Z,10.80
2019-02-06T12:52:47.508Z,11.20